Bursa, Turkey
Current Conditions -  °F | °C
As of 6:20 AM on Saturday 25 Oct 2014 (Local Time) from LTBR Reporting Station
Broken Clouds Broken Clouds  
Wind Chill: 63°   Ceiling: 2700
Heat Index: 63°   Visibility: 6mi
Dew Point: 54°   Wind: 8mph
Humidity: 72%   Direction: 80°E
Pressure: 29.77"   Gusts: NA
Location:  40.2°N, 29.08°E
Report Text: LTBR 250320Z 08007KT 9999 BKN027 BKN090 17/12 Q1008 RESHRA NOSIG
Loading
Personal Weather Stations






























Interactive Weather Map
Tropical Storm Tracking
New forecast layout! Learn more

10-Day Weather Forecast

Advertisements
Track Severe Weather on mobile